Igor I Sikorsky Memorial Airport
KBDR : now visible

Airfield :











YOU CAN JOIN US ON...

 
LOGIN :

Register | Disclaimer

   EN    FR    IT 

 









Legend :    VFR   Marginal VFR   IFR   Intensive IFR   Very Intensive IFR
Visi :
Ceiling :
>= 8 km
>= 3000ft
5 to 8 km
1000 to 3000 ft
1500m to 5 km
500 to 1000 ft
800 to 1500m
200 to 500 ft
< 800m
< 200 ft
Symbols :   Thunderstorms  Fog  Heavy snow  Heavy precipitations  Wind > 20 kt






- Airport Elevation : 9 ft
- IATA code : BDR


KBDR - Igor I Sikorsky Memorial

CURRENT METAR :
  • 301652Z 20010KT 10SM CLR 26/14 A3017 RMK AO2 SLP218 T02610139

EXPIRED METARs :
  • 301552Z 22010KT 10SM CLR 26/16 A3019 RMK AO2 SLP223 T02560156
  • 301452Z 21006KT 10SM CLR 25/14 A3020 RMK AO2 SLP225 T02500144 58003

TAF KBDR
Valid from the 30 at 14:00 until the 01 at 12:00 UTC


301426Z 3014/0112 VRB05KT P6SM SKC
FM301600 26008KT P6SM FEW050 FEW120
FM301900 22009KT P6SM FEW070
FM010200 VRB04KT P6SM FEW070
KZBW FIR / North America



MET'MAP, your aeronautical weather chart ! - Copyright ORBIFLY December 2007 - Disclaimer

ORBIFLY MET'MAP TEAM :

Programming & Development : Alexandra Zaïnal
Original concept : Baudouin d'Aumeries
Technical & hardware support : Manuel Goepfert
Assistance : Marc-Olivier Méhu




SOURCES & CREDITS :

   NOAA       Earth
Advisory